logo
Search for airport 
image banner adimage banner adimage banner ad
image banner ad

LOLG - St. Georgen Am Ybbsfeld

Located in District Amstetten, Austria

ICAO - LOLG, IATA -

Data provided by Airmate  

General information

Coordinates: N48°6'11" E14°57'3"
Elevation is 827 feet MSL.
 
View others Airports in Lower Austria

Operational data

Special qualification required
Current time UTC:
Current local time:
Weather at : LOWL - Linz ( 58 km )
METAR: LOWL 162020Z 32003KT 250V350 9999 FEW020 SCT080 24/18 Q1017 RESHRA TEMPO FM2045 23010KT TSRA
TAF: TAF AMD LOWL 161812Z 1618/1718 27005KT 9999 FEW030 SCT050 TX25/1618Z TN18/1703Z TEMPO 1618/1703 SHRA PROB30 TEMPO 1618/1622 TSRA FEW030CB BKN040
View NOTAMs / SUP AIP / TFR affecting this airport [VIEW]
Communications frequencies: [VIEW]

Runways:

RWY identifierQFULength (ft)Width (ft)SurfaceLDA (ft)
04157598GRASS
22157598GRASS

Airport contact information

Address: District Amstetten Austria

Other aviation service providers

Aviation club (not for profit)

Sportfliegergruppe Ybbs

Sportfliegergruppe Ybbs

Satellite view of LOLG